sensor_id;sensor_type;location;lat;lon;timestamp;P1;durP1;ratioP1;P2;durP2;ratioP2
3922;SDS011;1976;51.694;6.256;2023-04-08T00:00:08;0.60;;;0.60;;
3922;SDS011;1976;51.694;6.256;2023-04-08T00:02:34;0.90;;;0.90;;
3922;SDS011;1976;51.694;6.256;2023-04-08T00:05:00;1.10;;;1.10;;
3922;SDS011;1976;51.694;6.256;2023-04-08T00:07:26;1.00;;;1.00;;
3922;SDS011;1976;51.694;6.256;2023-04-08T00:09:52;0.60;;;0.60;;
3922;SDS011;1976;51.694;6.256;2023-04-08T00:12:18;0.60;;;0.60;;
3922;SDS011;1976;51.694;6.256;2023-04-08T00:14:44;2.87;;;2.60;;
3922;SDS011;1976;51.694;6.256;2023-04-08T00:17:10;0.60;;;0.60;;
3922;SDS011;1976;51.694;6.256;2023-04-08T00:19:36;0.60;;;0.60;;
3922;SDS011;1976;51.694;6.256;2023-04-08T00:22:02;0.60;;;0.60;;
3922;SDS011;1976;51.694;6.256;2023-04-08T00:24:28;0.60;;;0.60;;
3922;SDS011;1976;51.694;6.256;2023-04-08T00:26:54;0.80;;;0.80;;
3922;SDS011;1976;51.694;6.256;2023-04-08T00:29:20;0.70;;;0.70;;
3922;SDS011;1976;51.694;6.256;2023-04-08T00:31:46;0.60;;;0.60;;
3922;SDS011;1976;51.694;6.256;2023-04-08T00:34:12;0.90;;;0.90;;
3922;SDS011;1976;51.694;6.256;2023-04-08T00:36:38;0.70;;;0.70;;
3922;SDS011;1976;51.694;6.256;2023-04-08T00:39:04;0.70;;;0.70;;
3922;SDS011;1976;51.694;6.256;2023-04-08T00:41:32;0.80;;;0.80;;
3922;SDS011;1976;51.694;6.256;2023-04-08T00:43:58;0.60;;;0.60;;
3922;SDS011;1976;51.694;6.256;2023-04-08T00:46:24;0.70;;;0.70;;
3922;SDS011;1976;51.694;6.256;2023-04-08T00:48:51;0.60;;;0.60;;
3922;SDS011;1976;51.694;6.256;2023-04-08T00:51:17;0.60;;;0.60;;
3922;SDS011;1976;51.694;6.256;2023-04-08T00:53:43;0.70;;;0.70;;
3922;SDS011;1976;51.694;6.256;2023-04-08T00:56:09;0.90;;;0.90;;
3922;SDS011;1976;51.694;6.256;2023-04-08T00:58:35;0.70;;;0.70;;
3922;SDS011;1976;51.694;6.256;2023-04-08T01:06:41;0.70;;;0.70;;
3922;SDS011;1976;51.694;6.256;2023-04-08T01:09:22;0.63;;;0.63;;
3922;SDS011;1976;51.694;6.256;2023-04-08T01:11:52;0.60;;;0.60;;
3922;SDS011;1976;51.694;6.256;2023-04-08T01:14:22;0.70;;;0.70;;
3922;SDS011;1976;51.694;6.256;2023-04-08T01:16:49;0.60;;;0.60;;
3922;SDS011;1976;51.694;6.256;2023-04-08T01:19:25;0.60;;;0.60;;
3922;SDS011;1976;51.694;6.256;2023-04-08T01:21:51;0.70;;;0.70;;
3922;SDS011;1976;51.694;6.256;2023-04-08T01:24:21;0.60;;;0.60;;
3922;SDS011;1976;51.694;6.256;2023-04-08T01:26:51;0.60;;;0.60;;
3922;SDS011;1976;51.694;6.256;2023-04-08T01:29:17;0.60;;;0.60;;
3922;SDS011;1976;51.694;6.256;2023-04-08T01:31:44;0.70;;;0.70;;
3922;SDS011;1976;51.694;6.256;2023-04-08T01:34:12;0.60;;;0.60;;
3922;SDS011;1976;51.694;6.256;2023-04-08T01:36:39;0.70;;;0.70;;
3922;SDS011;1976;51.694;6.256;2023-04-08T01:39:06;0.60;;;0.60;;
3922;SDS011;1976;51.694;6.256;2023-04-08T01:41:33;0.60;;;0.60;;
3922;SDS011;1976;51.694;6.256;2023-04-08T01:44:01;0.60;;;0.60;;
3922;SDS011;1976;51.694;6.256;2023-04-08T01:46:28;0.60;;;0.60;;
3922;SDS011;1976;51.694;6.256;2023-04-08T01:48:54;0.80;;;0.80;;
3922;SDS011;1976;51.694;6.256;2023-04-08T01:51:20;0.60;;;0.60;;
3922;SDS011;1976;51.694;6.256;2023-04-08T01:53:47;0.60;;;0.60;;
3922;SDS011;1976;51.694;6.256;2023-04-08T01:56:12;0.60;;;0.60;;
3922;SDS011;1976;51.694;6.256;2023-04-08T01:58:45;0.60;;;0.60;;
3922;SDS011;1976;51.694;6.256;2023-04-08T02:01:16;0.60;;;0.60;;
3922;SDS011;1976;51.694;6.256;2023-04-08T02:03:43;0.60;;;0.60;;
3922;SDS011;1976;51.694;6.256;2023-04-08T02:06:10;0.70;;;0.70;;
3922;SDS011;1976;51.694;6.256;2023-04-08T02:08:37;0.60;;;0.60;;
3922;SDS011;1976;51.694;6.256;2023-04-08T02:11:02;0.70;;;0.70;;
3922;SDS011;1976;51.694;6.256;2023-04-08T02:13:29;0.60;;;0.60;;
3922;SDS011;1976;51.694;6.256;2023-04-08T02:15:58;0.60;;;0.60;;
3922;SDS011;1976;51.694;6.256;2023-04-08T02:18:30;0.60;;;0.60;;
3922;SDS011;1976;51.694;6.256;2023-04-08T02:20:58;0.60;;;0.60;;
3922;SDS011;1976;51.694;6.256;2023-04-08T02:23:40;0.60;;;0.60;;
3922;SDS011;1976;51.694;6.256;2023-04-08T02:26:07;0.70;;;0.70;;
3922;SDS011;1976;51.694;6.256;2023-04-08T02:28:38;0.60;;;0.60;;
3922;SDS011;1976;51.694;6.256;2023-04-08T02:31:05;0.60;;;0.60;;
3922;SDS011;1976;51.694;6.256;2023-04-08T02:33:32;0.60;;;0.60;;
3922;SDS011;1976;51.694;6.256;2023-04-08T02:36:01;0.60;;;0.60;;
3922;SDS011;1976;51.694;6.256;2023-04-08T02:38:28;0.67;;;0.67;;
3922;SDS011;1976;51.694;6.256;2023-04-08T02:40:54;2.73;;;1.33;;
3922;SDS011;1976;51.694;6.256;2023-04-08T02:43:20;0.60;;;0.60;;
3922;SDS011;1976;51.694;6.256;2023-04-08T02:45:46;2.00;;;0.93;;
3922;SDS011;1976;51.694;6.256;2023-04-08T02:48:12;0.60;;;0.60;;
3922;SDS011;1976;51.694;6.256;2023-04-08T02:50:37;0.60;;;0.60;;
3922;SDS011;1976;51.694;6.256;2023-04-08T02:53:04;0.60;;;0.60;;
3922;SDS011;1976;51.694;6.256;2023-04-08T02:55:30;0.60;;;0.60;;
3922;SDS011;1976;51.694;6.256;2023-04-08T02:57:56;0.60;;;0.60;;
3922;SDS011;1976;51.694;6.256;2023-04-08T03:00:22;0.60;;;0.60;;
3922;SDS011;1976;51.694;6.256;2023-04-08T03:02:48;0.60;;;0.60;;
3922;SDS011;1976;51.694;6.256;2023-04-08T03:05:14;0.60;;;0.60;;
3922;SDS011;1976;51.694;6.256;2023-04-08T03:07:40;0.60;;;0.60;;
3922;SDS011;1976;51.694;6.256;2023-04-08T03:10:07;0.60;;;0.60;;
3922;SDS011;1976;51.694;6.256;2023-04-08T03:12:33;0.70;;;0.70;;
3922;SDS011;1976;51.694;6.256;2023-04-08T03:14:59;0.60;;;0.60;;
3922;SDS011;1976;51.694;6.256;2023-04-08T03:17:25;0.60;;;0.60;;
3922;SDS011;1976;51.694;6.256;2023-04-08T03:19:51;0.60;;;0.60;;
3922;SDS011;1976;51.694;6.256;2023-04-08T03:22:18;0.60;;;0.60;;
3922;SDS011;1976;51.694;6.256;2023-04-08T03:24:44;0.60;;;0.60;;
3922;SDS011;1976;51.694;6.256;2023-04-08T03:27:10;0.60;;;0.60;;
3922;SDS011;1976;51.694;6.256;2023-04-08T03:29:36;0.60;;;0.60;;
3922;SDS011;1976;51.694;6.256;2023-04-08T03:32:02;0.60;;;0.60;;
3922;SDS011;1976;51.694;6.256;2023-04-08T03:34:28;0.60;;;0.60;;
3922;SDS011;1976;51.694;6.256;2023-04-08T03:36:54;0.60;;;0.60;;
3922;SDS011;1976;51.694;6.256;2023-04-08T03:39:20;1.17;;;1.07;;
3922;SDS011;1976;51.694;6.256;2023-04-08T03:41:46;0.60;;;0.60;;
3922;SDS011;1976;51.694;6.256;2023-04-08T03:44:12;0.70;;;0.70;;
3922;SDS011;1976;51.694;6.256;2023-04-08T03:46:38;0.60;;;0.60;;
3922;SDS011;1976;51.694;6.256;2023-04-08T03:49:04;0.80;;;0.80;;
3922;SDS011;1976;51.694;6.256;2023-04-08T03:51:31;0.60;;;0.60;;
3922;SDS011;1976;51.694;6.256;2023-04-08T03:53:56;0.60;;;0.60;;
3922;SDS011;1976;51.694;6.256;2023-04-08T03:56:22;0.60;;;0.60;;
3922;SDS011;1976;51.694;6.256;2023-04-08T03:58:49;0.60;;;0.60;;
3922;SDS011;1976;51.694;6.256;2023-04-08T04:01:15;0.60;;;0.60;;
3922;SDS011;1976;51.694;6.256;2023-04-08T04:03:40;0.70;;;0.70;;
3922;SDS011;1976;51.694;6.256;2023-04-08T04:06:06;0.60;;;0.60;;
3922;SDS011;1976;51.694;6.256;2023-04-08T04:08:32;0.67;;;0.67;;
3922;SDS011;1976;51.694;6.256;2023-04-08T04:10:59;0.60;;;0.60;;
3922;SDS011;1976;51.694;6.256;2023-04-08T04:13:25;1.43;;;1.33;;
3922;SDS011;1976;51.694;6.256;2023-04-08T04:15:51;0.60;;;0.60;;
3922;SDS011;1976;51.694;6.256;2023-04-08T04:18:17;0.60;;;0.60;;
3922;SDS011;1976;51.694;6.256;2023-04-08T04:20:43;0.60;;;0.60;;
3922;SDS011;1976;51.694;6.256;2023-04-08T04:23:09;0.60;;;0.60;;
3922;SDS011;1976;51.694;6.256;2023-04-08T04:25:35;0.60;;;0.60;;
3922;SDS011;1976;51.694;6.256;2023-04-08T04:28:03;0.60;;;0.60;;
3922;SDS011;1976;51.694;6.256;2023-04-08T04:30:29;0.60;;;0.60;;
3922;SDS011;1976;51.694;6.256;2023-04-08T04:32:55;0.60;;;0.60;;
3922;SDS011;1976;51.694;6.256;2023-04-08T04:35:21;0.60;;;0.60;;
3922;SDS011;1976;51.694;6.256;2023-04-08T04:37:47;0.60;;;0.60;;
3922;SDS011;1976;51.694;6.256;2023-04-08T04:40:15;0.60;;;0.60;;
3922;SDS011;1976;51.694;6.256;2023-04-08T04:42:42;0.60;;;0.60;;
3922;SDS011;1976;51.694;6.256;2023-04-08T04:45:08;0.60;;;0.60;;
3922;SDS011;1976;51.694;6.256;2023-04-08T04:47:34;0.90;;;0.90;;
3922;SDS011;1976;51.694;6.256;2023-04-08T04:50:00;0.70;;;0.70;;
3922;SDS011;1976;51.694;6.256;2023-04-08T04:52:26;0.63;;;0.63;;
3922;SDS011;1976;51.694;6.256;2023-04-08T04:54:52;0.60;;;0.60;;
3922;SDS011;1976;51.694;6.256;2023-04-08T04:57:18;0.60;;;0.60;;
3922;SDS011;1976;51.694;6.256;2023-04-08T04:59:44;0.60;;;0.60;;
3922;SDS011;1976;51.694;6.256;2023-04-08T05:02:10;0.60;;;0.60;;
3922;SDS011;1976;51.694;6.256;2023-04-08T05:04:36;0.87;;;0.87;;
3922;SDS011;1976;51.694;6.256;2023-04-08T05:07:02;0.60;;;0.60;;
3922;SDS011;1976;51.694;6.256;2023-04-08T05:09:28;0.60;;;0.60;;
3922;SDS011;1976;51.694;6.256;2023-04-08T05:11:54;0.60;;;0.60;;
3922;SDS011;1976;51.694;6.256;2023-04-08T05:14:20;0.60;;;0.60;;
3922;SDS011;1976;51.694;6.256;2023-04-08T05:16:46;0.60;;;0.60;;
3922;SDS011;1976;51.694;6.256;2023-04-08T05:19:12;0.60;;;0.60;;
3922;SDS011;1976;51.694;6.256;2023-04-08T05:21:38;0.60;;;0.60;;
3922;SDS011;1976;51.694;6.256;2023-04-08T05:24:04;0.60;;;0.60;;
3922;SDS011;1976;51.694;6.256;2023-04-08T05:26:30;0.67;;;0.67;;
3922;SDS011;1976;51.694;6.256;2023-04-08T05:28:57;0.70;;;0.70;;
3922;SDS011;1976;51.694;6.256;2023-04-08T05:31:22;0.60;;;0.60;;
3922;SDS011;1976;51.694;6.256;2023-04-08T05:33:48;0.60;;;0.60;;
3922;SDS011;1976;51.694;6.256;2023-04-08T05:36:14;0.80;;;0.80;;
3922;SDS011;1976;51.694;6.256;2023-04-08T05:38:40;0.60;;;0.60;;
3922;SDS011;1976;51.694;6.256;2023-04-08T05:41:08;0.70;;;0.70;;
3922;SDS011;1976;51.694;6.256;2023-04-08T05:43:34;0.70;;;0.70;;
3922;SDS011;1976;51.694;6.256;2023-04-08T05:46:09;0.70;;;0.70;;
3922;SDS011;1976;51.694;6.256;2023-04-08T05:48:35;0.60;;;0.60;;
3922;SDS011;1976;51.694;6.256;2023-04-08T05:51:01;0.60;;;0.60;;
3922;SDS011;1976;51.694;6.256;2023-04-08T05:53:27;0.60;;;0.60;;
3922;SDS011;1976;51.694;6.256;2023-04-08T05:55:53;0.70;;;0.70;;
3922;SDS011;1976;51.694;6.256;2023-04-08T05:58:19;0.70;;;0.70;;
3922;SDS011;1976;51.694;6.256;2023-04-08T06:00:45;0.70;;;0.70;;
3922;SDS011;1976;51.694;6.256;2023-04-08T06:03:11;0.63;;;0.63;;
3922;SDS011;1976;51.694;6.256;2023-04-08T06:05:37;0.70;;;0.70;;
3922;SDS011;1976;51.694;6.256;2023-04-08T06:08:03;0.70;;;0.70;;
3922;SDS011;1976;51.694;6.256;2023-04-08T06:10:29;0.70;;;0.70;;
3922;SDS011;1976;51.694;6.256;2023-04-08T06:12:55;0.60;;;0.60;;
3922;SDS011;1976;51.694;6.256;2023-04-08T06:15:21;0.70;;;0.70;;
3922;SDS011;1976;51.694;6.256;2023-04-08T06:17:47;0.60;;;0.60;;
3922;SDS011;1976;51.694;6.256;2023-04-08T06:20:13;0.60;;;0.60;;
3922;SDS011;1976;51.694;6.256;2023-04-08T06:22:39;0.60;;;0.60;;
3922;SDS011;1976;51.694;6.256;2023-04-08T06:25:05;0.60;;;0.60;;
3922;SDS011;1976;51.694;6.256;2023-04-08T06:27:31;0.60;;;0.60;;
3922;SDS011;1976;51.694;6.256;2023-04-08T06:29:57;0.70;;;0.70;;
3922;SDS011;1976;51.694;6.256;2023-04-08T06:32:23;0.70;;;0.70;;
3922;SDS011;1976;51.694;6.256;2023-04-08T06:34:49;0.70;;;0.70;;
3922;SDS011;1976;51.694;6.256;2023-04-08T06:37:15;0.60;;;0.60;;
3922;SDS011;1976;51.694;6.256;2023-04-08T06:39:41;0.60;;;0.60;;
3922;SDS011;1976;51.694;6.256;2023-04-08T06:42:08;0.67;;;0.67;;
3922;SDS011;1976;51.694;6.256;2023-04-08T06:44:34;1.17;;;1.07;;
3922;SDS011;1976;51.694;6.256;2023-04-08T06:47:00;0.60;;;0.60;;
3922;SDS011;1976;51.694;6.256;2023-04-08T06:49:26;0.60;;;0.60;;
3922;SDS011;1976;51.694;6.256;2023-04-08T06:51:52;0.60;;;0.60;;
3922;SDS011;1976;51.694;6.256;2023-04-08T06:54:18;0.63;;;0.63;;
3922;SDS011;1976;51.694;6.256;2023-04-08T06:56:44;0.80;;;0.80;;
3922;SDS011;1976;51.694;6.256;2023-04-08T06:59:10;0.60;;;0.60;;
3922;SDS011;1976;51.694;6.256;2023-04-08T07:01:36;0.60;;;0.60;;
3922;SDS011;1976;51.694;6.256;2023-04-08T07:04:02;0.60;;;0.60;;
3922;SDS011;1976;51.694;6.256;2023-04-08T07:06:28;0.70;;;0.70;;
3922;SDS011;1976;51.694;6.256;2023-04-08T07:08:54;0.70;;;0.70;;
3922;SDS011;1976;51.694;6.256;2023-04-08T07:11:20;0.73;;;0.73;;
3922;SDS011;1976;51.694;6.256;2023-04-08T07:13:46;1.53;;;1.43;;
3922;SDS011;1976;51.694;6.256;2023-04-08T07:16:12;0.60;;;0.60;;
3922;SDS011;1976;51.694;6.256;2023-04-08T07:18:38;0.70;;;0.70;;
3922;SDS011;1976;51.694;6.256;2023-04-08T07:21:05;0.70;;;0.70;;
3922;SDS011;1976;51.694;6.256;2023-04-08T07:23:31;0.60;;;0.60;;
3922;SDS011;1976;51.694;6.256;2023-04-08T07:26:00;0.60;;;0.60;;
3922;SDS011;1976;51.694;6.256;2023-04-08T07:28:27;0.60;;;0.60;;
3922;SDS011;1976;51.694;6.256;2023-04-08T07:30:53;0.60;;;0.60;;
3922;SDS011;1976;51.694;6.256;2023-04-08T07:33:19;1.13;;;1.13;;
3922;SDS011;1976;51.694;6.256;2023-04-08T07:35:45;0.60;;;0.60;;
3922;SDS011;1976;51.694;6.256;2023-04-08T07:38:11;0.60;;;0.60;;
3922;SDS011;1976;51.694;6.256;2023-04-08T07:40:37;0.60;;;0.60;;
3922;SDS011;1976;51.694;6.256;2023-04-08T07:43:03;0.60;;;0.60;;
3922;SDS011;1976;51.694;6.256;2023-04-08T07:45:29;0.70;;;0.70;;
3922;SDS011;1976;51.694;6.256;2023-04-08T07:47:55;0.60;;;0.60;;
3922;SDS011;1976;51.694;6.256;2023-04-08T07:50:21;0.60;;;0.60;;
3922;SDS011;1976;51.694;6.256;2023-04-08T07:52:47;0.90;;;0.90;;
3922;SDS011;1976;51.694;6.256;2023-04-08T07:55:13;0.60;;;0.60;;
3922;SDS011;1976;51.694;6.256;2023-04-08T07:57:39;0.70;;;0.70;;
3922;SDS011;1976;51.694;6.256;2023-04-08T08:00:05;0.60;;;0.60;;
3922;SDS011;1976;51.694;6.256;2023-04-08T08:02:32;0.60;;;0.60;;
3922;SDS011;1976;51.694;6.256;2023-04-08T08:04:59;0.63;;;0.63;;
3922;SDS011;1976;51.694;6.256;2023-04-08T08:07:27;0.80;;;0.80;;
3922;SDS011;1976;51.694;6.256;2023-04-08T08:09:53;1.93;;;1.83;;
3922;SDS011;1976;51.694;6.256;2023-04-08T08:12:19;0.60;;;0.60;;
3922;SDS011;1976;51.694;6.256;2023-04-08T08:14:45;0.60;;;0.60;;
3922;SDS011;1976;51.694;6.256;2023-04-08T08:17:11;0.60;;;0.60;;
3922;SDS011;1976;51.694;6.256;2023-04-08T08:19:37;0.63;;;0.63;;
3922;SDS011;1976;51.694;6.256;2023-04-08T08:22:02;0.60;;;0.60;;
3922;SDS011;1976;51.694;6.256;2023-04-08T08:24:28;0.87;;;0.87;;
3922;SDS011;1976;51.694;6.256;2023-04-08T08:26:54;0.60;;;0.60;;
3922;SDS011;1976;51.694;6.256;2023-04-08T08:29:20;25.60;;;16.67;;
3922;SDS011;1976;51.694;6.256;2023-04-08T08:31:46;20.30;;;14.90;;
3922;SDS011;1976;51.694;6.256;2023-04-08T08:34:12;22.23;;;17.20;;
3922;SDS011;1976;51.694;6.256;2023-04-08T08:36:38;16.30;;;13.60;;
3922;SDS011;1976;51.694;6.256;2023-04-08T08:39:04;16.87;;;12.33;;
3922;SDS011;1976;51.694;6.256;2023-04-08T08:41:33;17.07;;;12.47;;
3922;SDS011;1976;51.694;6.256;2023-04-08T08:44:05;17.30;;;14.20;;
3922;SDS011;1976;51.694;6.256;2023-04-08T08:46:32;15.80;;;12.83;;
3922;SDS011;1976;51.694;6.256;2023-04-08T08:48:58;20.07;;;13.17;;
3922;SDS011;1976;51.694;6.256;2023-04-08T08:51:25;20.23;;;12.67;;
3922;SDS011;1976;51.694;6.256;2023-04-08T08:53:52;18.23;;;13.67;;
3922;SDS011;1976;51.694;6.256;2023-04-08T08:56:17;12.77;;;11.47;;
3922;SDS011;1976;51.694;6.256;2023-04-08T08:58:43;15.50;;;11.70;;
3922;SDS011;1976;51.694;6.256;2023-04-08T09:01:28;14.30;;;10.50;;
3922;SDS011;1976;51.694;6.256;2023-04-08T09:06:33;13.60;;;10.70;;
3922;SDS011;1976;51.694;6.256;2023-04-08T09:08:59;10.43;;;9.20;;
3922;SDS011;1976;51.694;6.256;2023-04-08T09:11:26;17.10;;;10.03;;
3922;SDS011;1976;51.694;6.256;2023-04-08T09:13:52;9.40;;;8.40;;
3922;SDS011;1976;51.694;6.256;2023-04-08T09:16:18;10.37;;;8.07;;
3922;SDS011;1976;51.694;6.256;2023-04-08T09:18:47;15.77;;;8.87;;
3922;SDS011;1976;51.694;6.256;2023-04-08T09:21:13;11.33;;;8.07;;
3922;SDS011;1976;51.694;6.256;2023-04-08T09:23:41;9.53;;;7.47;;
3922;SDS011;1976;51.694;6.256;2023-04-08T09:26:18;10.37;;;7.73;;
3922;SDS011;1976;51.694;6.256;2023-04-08T09:31:23;8.30;;;6.90;;
3922;SDS011;1976;51.694;6.256;2023-04-08T09:33:52;8.40;;;6.40;;
3922;SDS011;1976;51.694;6.256;2023-04-08T09:36:22;7.87;;;6.57;;
3922;SDS011;1976;51.694;6.256;2023-04-08T09:38:48;7.40;;;6.60;;
3922;SDS011;1976;51.694;6.256;2023-04-08T09:41:15;6.77;;;6.10;;
3922;SDS011;1976;51.694;6.256;2023-04-08T09:43:42;7.83;;;5.30;;
3922;SDS011;1976;51.694;6.256;2023-04-08T09:46:13;7.10;;;6.40;;
3922;SDS011;1976;51.694;6.256;2023-04-08T09:48:39;7.53;;;6.73;;
3922;SDS011;1976;51.694;6.256;2023-04-08T09:51:07;7.60;;;6.83;;
3922;SDS011;1976;51.694;6.256;2023-04-08T09:53:37;11.77;;;7.77;;
3922;SDS011;1976;51.694;6.256;2023-04-08T09:56:06;9.43;;;6.87;;
3922;SDS011;1976;51.694;6.256;2023-04-08T09:58:44;9.57;;;7.20;;
3922;SDS011;1976;51.694;6.256;2023-04-08T10:01:15;11.63;;;6.77;;
3922;SDS011;1976;51.694;6.256;2023-04-08T10:03:53;10.60;;;6.40;;
3922;SDS011;1976;51.694;6.256;2023-04-08T10:06:21;8.00;;;6.30;;
3922;SDS011;1976;51.694;6.256;2023-04-08T10:08:52;10.00;;;6.60;;
3922;SDS011;1976;51.694;6.256;2023-04-08T10:11:18;9.00;;;6.60;;
3922;SDS011;1976;51.694;6.256;2023-04-08T10:13:44;7.30;;;5.47;;
3922;SDS011;1976;51.694;6.256;2023-04-08T10:18:46;6.00;;;5.03;;
3922;SDS011;1976;51.694;6.256;2023-04-08T10:21:36;6.83;;;6.07;;
3922;SDS011;1976;51.694;6.256;2023-04-08T10:24:05;6.30;;;5.43;;
3922;SDS011;1976;51.694;6.256;2023-04-08T10:26:36;12.53;;;6.20;;
3922;SDS011;1976;51.694;6.256;2023-04-08T10:31:43;5.40;;;4.90;;
3922;SDS011;1976;51.694;6.256;2023-04-08T10:34:15;5.43;;;4.93;;
3922;SDS011;1976;51.694;6.256;2023-04-08T10:36:41;6.10;;;5.43;;
3922;SDS011;1976;51.694;6.256;2023-04-08T10:39:08;7.17;;;5.17;;
3922;SDS011;1976;51.694;6.256;2023-04-08T10:41:34;5.50;;;5.00;;
3922;SDS011;1976;51.694;6.256;2023-04-08T10:44:03;7.33;;;5.47;;
3922;SDS011;1976;51.694;6.256;2023-04-08T10:46:36;7.07;;;6.23;;
3922;SDS011;1976;51.694;6.256;2023-04-08T10:49:02;7.03;;;5.93;;
3922;SDS011;1976;51.694;6.256;2023-04-08T10:51:30;10.67;;;5.87;;
3922;SDS011;1976;51.694;6.256;2023-04-08T10:54:07;9.90;;;6.13;;
3922;SDS011;1976;51.694;6.256;2023-04-08T10:56:34;8.70;;;6.90;;
3922;SDS011;1976;51.694;6.256;2023-04-08T10:59:01;10.17;;;7.30;;
3922;SDS011;1976;51.694;6.256;2023-04-08T11:01:27;11.67;;;6.70;;
3922;SDS011;1976;51.694;6.256;2023-04-08T11:04:11;7.77;;;6.87;;
3922;SDS011;1976;51.694;6.256;2023-04-08T11:06:38;10.80;;;6.63;;
3922;SDS011;1976;51.694;6.256;2023-04-08T11:09:04;8.40;;;6.27;;
3922;SDS011;1976;51.694;6.256;2023-04-08T11:11:30;7.63;;;6.33;;
3922;SDS011;1976;51.694;6.256;2023-04-08T11:13:56;6.50;;;5.63;;
3922;SDS011;1976;51.694;6.256;2023-04-08T11:16:22;8.50;;;6.43;;
3922;SDS011;1976;51.694;6.256;2023-04-08T11:18:50;7.57;;;6.10;;
3922;SDS011;1976;51.694;6.256;2023-04-08T11:21:15;10.33;;;7.33;;
3922;SDS011;1976;51.694;6.256;2023-04-08T11:23:41;9.67;;;7.93;;
3922;SDS011;1976;51.694;6.256;2023-04-08T11:26:07;12.10;;;6.97;;
3922;SDS011;1976;51.694;6.256;2023-04-08T11:28:35;8.70;;;6.07;;
3922;SDS011;1976;51.694;6.256;2023-04-08T11:31:01;7.67;;;6.33;;
3922;SDS011;1976;51.694;6.256;2023-04-08T11:33:31;8.50;;;6.70;;
3922;SDS011;1976;51.694;6.256;2023-04-08T11:35:56;8.57;;;6.50;;
3922;SDS011;1976;51.694;6.256;2023-04-08T11:38:23;13.83;;;6.87;;
3922;SDS011;1976;51.694;6.256;2023-04-08T11:40:53;9.70;;;6.00;;
3922;SDS011;1976;51.694;6.256;2023-04-08T11:43:19;11.13;;;5.67;;
3922;SDS011;1976;51.694;6.256;2023-04-08T11:45:45;9.27;;;6.20;;
3922;SDS011;1976;51.694;6.256;2023-04-08T11:48:11;8.63;;;6.23;;
3922;SDS011;1976;51.694;6.256;2023-04-08T11:50:38;7.63;;;5.60;;
3922;SDS011;1976;51.694;6.256;2023-04-08T11:53:14;6.90;;;5.90;;
3922;SDS011;1976;51.694;6.256;2023-04-08T11:55:44;9.63;;;6.27;;
3922;SDS011;1976;51.694;6.256;2023-04-08T11:58:10;7.43;;;6.37;;
3922;SDS011;1976;51.694;6.256;2023-04-08T12:00:36;10.43;;;6.37;;
3922;SDS011;1976;51.694;6.256;2023-04-08T12:03:02;8.37;;;6.37;;
3922;SDS011;1976;51.694;6.256;2023-04-08T12:05:28;9.63;;;6.13;;
3922;SDS011;1976;51.694;6.256;2023-04-08T12:07:55;11.50;;;6.27;;
3922;SDS011;1976;51.694;6.256;2023-04-08T12:10:21;9.03;;;5.97;;
3922;SDS011;1976;51.694;6.256;2023-04-08T12:12:49;7.33;;;5.80;;
3922;SDS011;1976;51.694;6.256;2023-04-08T12:15:15;6.40;;;5.23;;
3922;SDS011;1976;51.694;6.256;2023-04-08T12:17:41;9.00;;;5.37;;
3922;SDS011;1976;51.694;6.256;2023-04-08T12:20:08;10.60;;;5.97;;
3922;SDS011;1976;51.694;6.256;2023-04-08T12:22:34;7.00;;;4.90;;
3922;SDS011;1976;51.694;6.256;2023-04-08T12:25:00;7.30;;;5.43;;
3922;SDS011;1976;51.694;6.256;2023-04-08T12:27:27;8.10;;;5.30;;
3922;SDS011;1976;51.694;6.256;2023-04-08T12:29:53;5.77;;;5.07;;
3922;SDS011;1976;51.694;6.256;2023-04-08T12:32:19;7.40;;;4.73;;
3922;SDS011;1976;51.694;6.256;2023-04-08T12:34:46;9.10;;;5.20;;
3922;SDS011;1976;51.694;6.256;2023-04-08T12:37:12;5.77;;;4.70;;
3922;SDS011;1976;51.694;6.256;2023-04-08T12:39:38;8.97;;;4.90;;
3922;SDS011;1976;51.694;6.256;2023-04-08T12:42:04;8.43;;;4.67;;
3922;SDS011;1976;51.694;6.256;2023-04-08T12:44:30;7.37;;;5.47;;
3922;SDS011;1976;51.694;6.256;2023-04-08T12:46:56;9.23;;;5.30;;
3922;SDS011;1976;51.694;6.256;2023-04-08T12:49:22;7.07;;;5.70;;
3922;SDS011;1976;51.694;6.256;2023-04-08T12:51:48;20.20;;;5.90;;
3922;SDS011;1976;51.694;6.256;2023-04-08T12:54:14;6.83;;;5.30;;
3922;SDS011;1976;51.694;6.256;2023-04-08T12:56:41;16.27;;;6.20;;
3922;SDS011;1976;51.694;6.256;2023-04-08T12:59:07;12.10;;;6.13;;
3922;SDS011;1976;51.694;6.256;2023-04-08T13:01:34;7.47;;;6.33;;
3922;SDS011;1976;51.694;6.256;2023-04-08T13:04:00;9.40;;;7.20;;
3922;SDS011;1976;51.694;6.256;2023-04-08T13:06:26;9.37;;;6.70;;
3922;SDS011;1976;51.694;6.256;2023-04-08T13:08:52;8.87;;;6.60;;
3922;SDS011;1976;51.694;6.256;2023-04-08T13:11:18;8.67;;;5.87;;
3922;SDS011;1976;51.694;6.256;2023-04-08T13:13:45;8.60;;;6.67;;
3922;SDS011;1976;51.694;6.256;2023-04-08T13:16:11;9.00;;;6.33;;
3922;SDS011;1976;51.694;6.256;2023-04-08T13:18:38;9.03;;;6.53;;
3922;SDS011;1976;51.694;6.256;2023-04-08T13:21:05;9.17;;;6.20;;
3922;SDS011;1976;51.694;6.256;2023-04-08T13:23:31;10.20;;;6.63;;
3922;SDS011;1976;51.694;6.256;2023-04-08T13:25:57;9.53;;;6.83;;
3922;SDS011;1976;51.694;6.256;2023-04-08T13:28:23;9.77;;;7.20;;
3922;SDS011;1976;51.694;6.256;2023-04-08T13:30:49;11.97;;;8.37;;
3922;SDS011;1976;51.694;6.256;2023-04-08T13:33:15;9.27;;;7.40;;
3922;SDS011;1976;51.694;6.256;2023-04-08T13:35:42;11.00;;;7.87;;
3922;SDS011;1976;51.694;6.256;2023-04-08T13:38:08;9.10;;;6.97;;
3922;SDS011;1976;51.694;6.256;2023-04-08T13:40:34;9.07;;;7.10;;
3922;SDS011;1976;51.694;6.256;2023-04-08T13:43:00;8.30;;;7.17;;
3922;SDS011;1976;51.694;6.256;2023-04-08T13:45:26;14.53;;;8.80;;
3922;SDS011;1976;51.694;6.256;2023-04-08T13:47:52;16.77;;;9.37;;
3922;SDS011;1976;51.694;6.256;2023-04-08T13:50:18;12.27;;;7.47;;
3922;SDS011;1976;51.694;6.256;2023-04-08T13:52:45;13.90;;;7.13;;
3922;SDS011;1976;51.694;6.256;2023-04-08T13:55:11;26.43;;;7.70;;
3922;SDS011;1976;51.694;6.256;2023-04-08T13:57:37;9.90;;;8.50;;
3922;SDS011;1976;51.694;6.256;2023-04-08T14:00:03;9.83;;;8.23;;
3922;SDS011;1976;51.694;6.256;2023-04-08T14:02:29;7.63;;;6.53;;
3922;SDS011;1976;51.694;6.256;2023-04-08T14:04:55;9.57;;;7.53;;
3922;SDS011;1976;51.694;6.256;2023-04-08T14:07:22;17.73;;;7.80;;
3922;SDS011;1976;51.694;6.256;2023-04-08T14:09:48;13.23;;;7.43;;
3922;SDS011;1976;51.694;6.256;2023-04-08T14:12:14;14.23;;;7.77;;
3922;SDS011;1976;51.694;6.256;2023-04-08T14:14:40;11.30;;;7.60;;
3922;SDS011;1976;51.694;6.256;2023-04-08T14:17:05;14.47;;;7.80;;
3922;SDS011;1976;51.694;6.256;2023-04-08T14:19:31;9.30;;;7.37;;
3922;SDS011;1976;51.694;6.256;2023-04-08T14:21:57;9.63;;;7.23;;
3922;SDS011;1976;51.694;6.256;2023-04-08T14:24:23;12.97;;;7.00;;
3922;SDS011;1976;51.694;6.256;2023-04-08T14:26:49;15.27;;;7.77;;
3922;SDS011;1976;51.694;6.256;2023-04-08T14:29:15;11.33;;;7.20;;
3922;SDS011;1976;51.694;6.256;2023-04-08T14:31:41;8.70;;;7.10;;
3922;SDS011;1976;51.694;6.256;2023-04-08T14:34:07;11.63;;;8.57;;
3922;SDS011;1976;51.694;6.256;2023-04-08T14:36:33;8.33;;;7.20;;
3922;SDS011;1976;51.694;6.256;2023-04-08T14:38:59;9.03;;;6.77;;
3922;SDS011;1976;51.694;6.256;2023-04-08T14:41:25;8.60;;;6.97;;
3922;SDS011;1976;51.694;6.256;2023-04-08T14:43:51;9.97;;;7.43;;
3922;SDS011;1976;51.694;6.256;2023-04-08T14:46:18;11.80;;;6.77;;
3922;SDS011;1976;51.694;6.256;2023-04-08T14:48:44;9.13;;;7.47;;
3922;SDS011;1976;51.694;6.256;2023-04-08T14:51:10;12.27;;;8.07;;
3922;SDS011;1976;51.694;6.256;2023-04-08T14:53:36;10.47;;;8.53;;
3922;SDS011;1976;51.694;6.256;2023-04-08T14:56:02;10.90;;;7.83;;
3922;SDS011;1976;51.694;6.256;2023-04-08T14:58:29;11.67;;;8.83;;
3922;SDS011;1976;51.694;6.256;2023-04-08T15:00:54;9.50;;;7.70;;
3922;SDS011;1976;51.694;6.256;2023-04-08T15:03:20;12.00;;;8.37;;
3922;SDS011;1976;51.694;6.256;2023-04-08T15:05:46;13.83;;;9.27;;
3922;SDS011;1976;51.694;6.256;2023-04-08T15:08:12;10.10;;;6.93;;
3922;SDS011;1976;51.694;6.256;2023-04-08T15:10:38;11.40;;;8.50;;
3922;SDS011;1976;51.694;6.256;2023-04-08T15:13:04;15.93;;;8.50;;
3922;SDS011;1976;51.694;6.256;2023-04-08T15:15:30;10.20;;;8.77;;
3922;SDS011;1976;51.694;6.256;2023-04-08T15:17:56;10.10;;;7.07;;
3922;SDS011;1976;51.694;6.256;2023-04-08T15:20:22;11.70;;;9.00;;
3922;SDS011;1976;51.694;6.256;2023-04-08T15:22:48;14.90;;;8.50;;
3922;SDS011;1976;51.694;6.256;2023-04-08T15:25:14;18.17;;;9.93;;